FSIA

Seychelles International Airport

Mahe Island, Seychelles
METAR FSIA 160600Z 13011KT 9999 R13///// FEW021 26/22 Q1016 NOSIG
Observed Flight Rules
Aug-16 @ 06:00 UTC (18 minutes ago) Visual Flight Rules
Wind Visibility Clouds
130° at 11 knots 10,000+ meters
  • Few at 2,100' AGL
Temperatures Readings
Current 26°C / 79°F
Dewpoint 22°C / 72°F
Humidity 79%
Altimeter 30" Hg
Pressure 1016 hPa
Elevation 3
METAR FSIA 160600Z 13011KT 9999 R13///// FEW021 26/22 Q1016 NOSIG
Observed Flight Rules
Aug-16 @ 06:00 UTC
(18 minutes ago)
VFR
Wind Visibility
130° at 11 knots 10,000+ meters
Clouds
  • Few at 2,100' AGL
Temperature Dewpoint
26°C / 79°F 22°C / 72°F
Humidity Altimeter Pressure
79% 30" Hg 1016 hPa